createdAt,value
2023-05-06T00:00:06.547Z,100.00
2023-05-06T00:02:36.072Z,100.00
2023-05-06T00:05:04.861Z,100.00
2023-05-06T00:07:33.065Z,100.00
2023-05-06T00:10:01.054Z,100.00
2023-05-06T00:12:29.064Z,100.00
2023-05-06T00:14:57.097Z,100.00
2023-05-06T00:17:25.089Z,100.00
2023-05-06T00:19:54.631Z,100.00
2023-05-06T00:22:22.575Z,100.00
2023-05-06T00:24:50.520Z,100.00
2023-05-06T00:27:18.706Z,100.00
2023-05-06T00:29:46.659Z,100.00
2023-05-06T00:32:14.580Z,100.00
2023-05-06T00:34:42.588Z,100.00
2023-05-06T00:37:11.929Z,100.00
2023-05-06T00:39:39.907Z,100.00
2023-05-06T00:42:07.961Z,100.00
2023-05-06T00:44:35.947Z,100.00
2023-05-06T00:47:04.515Z,100.00
2023-05-06T00:49:32.930Z,100.00
2023-05-06T00:52:01.855Z,100.00
2023-05-06T00:54:31.681Z,100.00
2023-05-06T00:56:59.813Z,100.00
2023-05-06T00:59:27.868Z,100.00
2023-05-06T01:01:56.054Z,100.00
2023-05-06T01:04:25.541Z,100.00
2023-05-06T01:07:03.833Z,100.00
2023-05-06T01:09:42.836Z,100.00
2023-05-06T01:12:18.330Z,100.00
2023-05-06T01:14:56.962Z,100.00
2023-05-06T01:17:28.693Z,100.00
2023-05-06T01:20:01.809Z,100.00
2023-05-06T01:22:31.647Z,100.00
2023-05-06T01:25:01.755Z,100.00
2023-05-06T01:27:30.306Z,100.00
2023-05-06T01:30:00.771Z,100.00
2023-05-06T01:32:39.959Z,100.00
2023-05-06T01:35:18.080Z,100.00
2023-05-06T01:37:57.419Z,100.00
2023-05-06T01:40:30.313Z,100.00
2023-05-06T01:42:58.876Z,100.00
2023-05-06T01:45:29.906Z,100.00
2023-05-06T01:47:58.650Z,100.00
2023-05-06T01:50:27.304Z,100.00
2023-05-06T01:52:59.211Z,100.00
2023-05-06T01:55:28.655Z,100.00
2023-05-06T01:57:57.736Z,100.00
2023-05-06T02:00:26.617Z,100.00
2023-05-06T02:02:54.880Z,100.00
2023-05-06T02:05:22.831Z,100.00
2023-05-06T02:07:51.392Z,100.00
2023-05-06T02:10:19.617Z,100.00
2023-05-06T02:12:49.569Z,100.00
2023-05-06T02:15:17.629Z,100.00
2023-05-06T02:17:46.284Z,100.00
2023-05-06T02:20:14.487Z,100.00
2023-05-06T02:22:42.670Z,100.00
2023-05-06T02:25:11.271Z,100.00
2023-05-06T02:27:39.590Z,100.00
2023-05-06T02:30:09.797Z,100.00
2023-05-06T02:32:37.961Z,100.00
2023-05-06T02:35:07.048Z,100.00
2023-05-06T02:37:35.173Z,100.00
2023-05-06T02:40:03.207Z,100.00
2023-05-06T02:42:31.299Z,100.00
2023-05-06T02:44:59.458Z,100.00
2023-05-06T02:47:28.759Z,100.00
2023-05-06T02:49:56.947Z,100.00
2023-05-06T02:52:24.966Z,100.00
2023-05-06T02:54:53.182Z,100.00
2023-05-06T02:57:21.177Z,100.00
2023-05-06T02:59:49.144Z,100.00
2023-05-06T03:02:17.060Z,100.00
2023-05-06T03:04:46.506Z,100.00
2023-05-06T03:07:14.676Z,100.00
2023-05-06T03:09:42.606Z,100.00
2023-05-06T03:12:10.588Z,100.00
2023-05-06T03:14:38.640Z,100.00
2023-05-06T03:17:06.851Z,100.00
2023-05-06T03:19:34.841Z,100.00
2023-05-06T03:22:04.285Z,100.00
2023-05-06T03:24:32.363Z,100.00
2023-05-06T03:27:01.861Z,100.00
2023-05-06T03:29:29.983Z,100.00
2023-05-06T03:31:58.160Z,100.00
2023-05-06T03:34:26.311Z,100.00
2023-05-06T03:36:54.330Z,100.00
2023-05-06T03:39:23.826Z,100.00
2023-05-06T03:41:51.911Z,100.00
2023-05-06T03:44:19.932Z,100.00
2023-05-06T03:46:48.023Z,100.00
2023-05-06T03:49:15.987Z,100.00
2023-05-06T03:51:43.997Z,100.00
2023-05-06T03:54:12.155Z,100.00
2023-05-06T03:56:41.535Z,100.00
2023-05-06T03:59:09.993Z,100.00
2023-05-06T04:01:37.991Z,100.00
2023-05-06T04:04:06.415Z,100.00
2023-05-06T04:06:34.433Z,100.00
2023-05-06T04:09:02.477Z,100.00
2023-05-06T04:11:31.154Z,100.00
2023-05-06T04:14:03.022Z,100.00
2023-05-06T04:16:31.372Z,100.00
2023-05-06T04:19:02.860Z,100.00
2023-05-06T04:21:32.552Z,100.00
2023-05-06T04:24:00.545Z,100.00
2023-05-06T04:26:29.200Z,100.00
2023-05-06T04:28:57.962Z,100.00
2023-05-06T04:34:17.576Z,100.00
2023-05-06T04:36:46.096Z,100.00
2023-05-06T04:39:14.086Z,100.00
2023-05-06T04:41:42.047Z,100.00
2023-05-06T04:44:10.184Z,100.00
2023-05-06T04:46:39.673Z,100.00
2023-05-06T04:49:07.664Z,100.00
2023-05-06T04:51:35.727Z,100.00
2023-05-06T04:54:03.723Z,100.00
2023-05-06T04:56:31.782Z,100.00
2023-05-06T04:58:59.727Z,100.00
2023-05-06T05:01:27.699Z,100.00
2023-05-06T05:03:59.616Z,100.00
2023-05-06T05:06:28.912Z,100.00
2023-05-06T05:08:59.351Z,100.00
2023-05-06T05:11:42.019Z,100.00
2023-05-06T05:14:10.032Z,100.00
2023-05-06T05:16:38.648Z,100.00
2023-05-06T05:19:13.136Z,100.00
2023-05-06T05:21:41.613Z,100.00
2023-05-06T05:24:09.717Z,100.00
2023-05-06T05:26:37.753Z,98.87
2023-05-06T05:29:06.666Z,100.00
2023-05-06T05:31:34.757Z,100.00
2023-05-06T05:34:03.287Z,100.00
2023-05-06T05:36:35.293Z,100.00
2023-05-06T05:39:04.150Z,100.00
2023-05-06T05:41:32.257Z,100.00
2023-05-06T05:44:00.548Z,100.00
2023-05-06T05:46:28.663Z,100.00
2023-05-06T05:48:56.753Z,100.00
2023-05-06T05:51:24.917Z,100.00
2023-05-06T05:53:54.311Z,100.00
2023-05-06T05:56:22.400Z,100.00
2023-05-06T05:58:50.615Z,100.00
2023-05-06T06:01:18.730Z,100.00
2023-05-06T06:03:47.176Z,100.00
2023-05-06T06:06:15.527Z,100.00
2023-05-06T06:08:46.156Z,100.00
2023-05-06T06:11:15.893Z,100.00
2023-05-06T06:13:45.300Z,100.00
2023-05-06T06:16:13.423Z,100.00
2023-05-06T06:18:41.403Z,100.00
2023-05-06T06:21:09.524Z,100.00
2023-05-06T06:23:37.560Z,100.00
2023-05-06T06:26:05.717Z,100.00
2023-05-06T06:28:35.159Z,100.00
2023-05-06T06:31:03.593Z,100.00
2023-05-06T06:33:32.085Z,100.00
2023-05-06T06:36:01.493Z,100.00
2023-05-06T06:38:30.266Z,100.00
2023-05-06T06:40:58.266Z,100.00
2023-05-06T06:43:26.894Z,100.00
2023-05-06T06:45:56.439Z,100.00
2023-05-06T06:48:24.477Z,100.00
2023-05-06T06:50:52.632Z,100.00
2023-05-06T06:53:21.380Z,100.00
2023-05-06T06:55:49.681Z,100.00
2023-05-06T06:58:17.690Z,100.00
2023-05-06T07:00:46.022Z,100.00
2023-05-06T07:03:15.997Z,100.00
2023-05-06T07:05:44.132Z,100.00
2023-05-06T07:08:12.389Z,100.00
2023-05-06T07:10:40.517Z,100.00
2023-05-06T07:13:08.534Z,100.00
2023-05-06T07:15:36.951Z,100.00
2023-05-06T07:18:05.315Z,100.00
2023-05-06T07:20:34.840Z,100.00
2023-05-06T07:23:03.095Z,100.00
2023-05-06T07:25:31.484Z,100.00
2023-05-06T07:27:59.555Z,100.00
2023-05-06T07:30:28.113Z,99.29
2023-05-06T07:32:56.222Z,99.64
2023-05-06T07:35:24.214Z,98.45
2023-05-06T07:37:54.349Z,94.41
2023-05-06T07:40:22.492Z,94.71
2023-05-06T07:42:50.648Z,94.53
2023-05-06T07:45:22.309Z,91.78
2023-05-06T07:47:50.673Z,86.25
2023-05-06T07:50:18.780Z,85.46
2023-05-06T07:52:46.959Z,80.16
2023-05-06T07:55:16.385Z,78.45
2023-05-06T07:57:44.548Z,78.36
2023-05-06T08:00:13.278Z,76.46
2023-05-06T08:02:44.495Z,76.49
2023-05-06T08:05:12.983Z,73.44
2023-05-06T08:07:42.474Z,72.48
2023-05-06T08:10:14.200Z,73.95
2023-05-06T08:12:43.673Z,72.59
2023-05-06T08:15:12.894Z,71.12
2023-05-06T08:17:41.113Z,69.28
2023-05-06T08:20:10.121Z,69.52
2023-05-06T08:22:38.322Z,70.37
2023-05-06T08:25:06.953Z,69.82
2023-05-06T08:27:38.042Z,65.53
2023-05-06T08:30:09.014Z,60.09
2023-05-06T08:32:37.089Z,61.79
2023-05-06T08:35:05.634Z,61.75
2023-05-06T08:37:33.646Z,63.18
2023-05-06T08:40:01.932Z,62.10
2023-05-06T08:42:31.955Z,57.88
2023-05-06T08:45:00.312Z,57.36
2023-05-06T08:47:29.929Z,56.68
2023-05-06T08:49:57.979Z,56.83
2023-05-06T08:52:26.155Z,58.21
2023-05-06T08:55:01.416Z,56.79
2023-05-06T08:57:31.736Z,54.85
2023-05-06T08:59:59.976Z,53.13
2023-05-06T09:02:29.985Z,52.47
2023-05-06T09:04:58.179Z,52.18
2023-05-06T09:07:26.184Z,52.17
2023-05-06T09:09:54.172Z,52.20
2023-05-06T09:12:22.180Z,51.78
2023-05-06T09:14:52.123Z,51.31
2023-05-06T09:17:24.155Z,53.11
2023-05-06T09:19:57.071Z,52.34
2023-05-06T09:22:25.650Z,53.60
2023-05-06T09:24:56.910Z,54.05
2023-05-06T09:27:26.304Z,52.79
2023-05-06T09:30:02.650Z,53.66
2023-05-06T09:32:30.741Z,55.20
2023-05-06T09:35:00.192Z,55.98
2023-05-06T09:37:29.209Z,54.93
2023-05-06T09:39:58.628Z,54.91
2023-05-06T09:42:28.782Z,54.35
2023-05-06T09:45:00.546Z,55.99
2023-05-06T09:47:34.760Z,56.71
2023-05-06T09:50:05.427Z,56.05
2023-05-06T09:52:33.664Z,56.16
2023-05-06T09:55:02.919Z,54.38
2023-05-06T09:57:32.038Z,54.67
2023-05-06T10:00:01.406Z,55.73
2023-05-06T10:02:31.795Z,57.75
2023-05-06T10:05:00.700Z,58.55
2023-05-06T10:07:30.849Z,58.23
2023-05-06T10:10:00.404Z,58.13
2023-05-06T10:12:28.780Z,59.13
2023-05-06T10:14:57.339Z,60.35
2023-05-06T10:17:27.003Z,61.34
2023-05-06T10:20:00.605Z,62.11
2023-05-06T10:22:42.565Z,62.19
2023-05-06T10:25:19.447Z,61.45
2023-05-06T10:27:48.839Z,61.77
2023-05-06T10:30:18.046Z,60.64
2023-05-06T10:32:47.188Z,59.36
2023-05-06T10:35:23.827Z,59.16
2023-05-06T10:37:54.900Z,57.35
2023-05-06T10:40:24.477Z,56.92
2023-05-06T10:42:52.486Z,56.10
2023-05-06T10:45:20.860Z,52.46
2023-05-06T10:48:16.166Z,52.29
2023-05-06T10:50:46.240Z,51.74
2023-05-06T10:53:16.075Z,54.09
2023-05-06T10:55:44.464Z,51.99
2023-05-06T10:58:15.400Z,49.51
2023-05-06T11:00:43.801Z,49.88
2023-05-06T11:03:13.922Z,46.58
2023-05-06T11:05:49.971Z,46.03
2023-05-06T11:08:25.210Z,45.52
2023-05-06T11:10:53.778Z,45.35
2023-05-06T11:13:27.859Z,46.47
2023-05-06T11:15:59.792Z,47.25
2023-05-06T11:18:46.584Z,47.84
2023-05-06T11:21:36.684Z,48.44
2023-05-06T11:24:13.322Z,49.05
2023-05-06T11:26:42.406Z,49.69
2023-05-06T11:29:10.790Z,49.90
2023-05-06T11:31:44.257Z,50.34
2023-05-06T11:34:15.321Z,50.37
2023-05-06T11:37:06.660Z,49.67
2023-05-06T11:39:40.767Z,49.23
2023-05-06T11:42:10.379Z,47.70
2023-05-06T11:44:40.688Z,46.30
2023-05-06T11:47:10.368Z,46.13
2023-05-06T11:49:41.586Z,45.62
2023-05-06T11:52:10.245Z,46.09
2023-05-06T11:54:40.752Z,45.13
2023-05-06T11:57:09.762Z,45.35
2023-05-06T11:59:38.945Z,46.27
2023-05-06T12:02:08.801Z,46.82
2023-05-06T12:04:43.476Z,47.43
2023-05-06T12:07:13.067Z,46.96
2023-05-06T12:09:44.686Z,47.88
2023-05-06T12:12:16.342Z,47.19
2023-05-06T12:14:45.991Z,46.38
2023-05-06T12:17:15.612Z,45.07
2023-05-06T12:19:43.755Z,45.99
2023-05-06T12:22:19.393Z,47.20
2023-05-06T12:24:50.028Z,47.50
2023-05-06T12:27:30.814Z,48.54
2023-05-06T12:29:58.803Z,50.47
2023-05-06T12:32:30.716Z,51.32
2023-05-06T12:35:00.525Z,50.66
2023-05-06T12:37:30.459Z,50.50
2023-05-06T12:39:59.993Z,50.89
2023-05-06T12:42:28.221Z,52.12
2023-05-06T12:44:56.383Z,52.36
2023-05-06T12:47:26.599Z,52.75
2023-05-06T12:49:58.205Z,51.91
2023-05-06T12:52:28.739Z,52.08
2023-05-06T12:54:57.200Z,51.22
2023-05-06T12:57:26.588Z,50.44
2023-05-06T12:59:56.563Z,50.58
2023-05-06T13:02:24.638Z,50.16
2023-05-06T13:04:52.874Z,50.55
2023-05-06T13:07:22.356Z,50.32
2023-05-06T13:09:50.584Z,50.78
2023-05-06T13:12:18.811Z,51.36
2023-05-06T13:14:48.152Z,51.74
2023-05-06T13:17:16.279Z,52.76
2023-05-06T13:19:45.309Z,53.51
2023-05-06T13:22:13.563Z,52.98
2023-05-06T13:24:41.679Z,52.54
2023-05-06T13:27:09.787Z,51.82
2023-05-06T13:29:37.706Z,51.46
2023-05-06T13:32:08.980Z,51.81
2023-05-06T13:34:37.753Z,52.43
2023-05-06T13:37:05.888Z,52.28
2023-05-06T13:39:36.648Z,53.33
2023-05-06T13:42:06.721Z,53.28
2023-05-06T13:44:36.378Z,53.17
2023-05-06T13:47:04.370Z,54.17
2023-05-06T13:49:35.285Z,54.13
2023-05-06T13:52:08.207Z,53.82
2023-05-06T13:54:36.472Z,54.35
2023-05-06T13:57:04.726Z,53.69
2023-05-06T13:59:34.768Z,52.67
2023-05-06T14:02:07.009Z,51.77
2023-05-06T14:04:38.690Z,50.71
2023-05-06T14:07:06.704Z,50.50
2023-05-06T14:09:34.814Z,50.01
2023-05-06T14:12:02.978Z,49.59
2023-05-06T14:14:30.909Z,49.21
2023-05-06T14:16:58.825Z,49.06
2023-05-06T14:19:27.180Z,49.48
2023-05-06T14:21:57.819Z,48.86
2023-05-06T14:24:25.966Z,48.93
2023-05-06T14:26:54.163Z,49.31
2023-05-06T14:29:22.119Z,48.42
2023-05-06T14:31:50.129Z,49.56
2023-05-06T14:34:18.235Z,49.56
2023-05-06T14:36:46.275Z,48.95
2023-05-06T14:39:15.734Z,49.63
2023-05-06T14:41:43.665Z,50.53
2023-05-06T14:44:11.672Z,51.47
2023-05-06T14:46:39.686Z,51.93
2023-05-06T14:49:07.564Z,52.11
2023-05-06T14:51:35.593Z,52.64
2023-05-06T14:54:03.741Z,52.43
2023-05-06T14:56:35.558Z,52.86
2023-05-06T14:59:04.258Z,52.84
2023-05-06T15:01:33.722Z,52.61
2023-05-06T15:04:01.749Z,52.64
2023-05-06T15:06:29.775Z,52.64
2023-05-06T15:08:57.673Z,52.36
2023-05-06T15:11:25.668Z,52.72
2023-05-06T15:13:55.593Z,52.84
2023-05-06T15:16:23.681Z,52.42
2023-05-06T15:18:51.675Z,52.43
2023-05-06T15:21:19.685Z,53.04
2023-05-06T15:23:48.287Z,53.30
2023-05-06T15:26:16.316Z,53.19
2023-05-06T15:28:44.274Z,53.47
2023-05-06T15:31:13.556Z,53.27
2023-05-06T15:33:41.757Z,53.74
2023-05-06T15:36:10.046Z,54.58
2023-05-06T15:38:59.781Z,54.28
2023-05-06T15:41:30.484Z,53.98
2023-05-06T15:43:59.559Z,53.95
2023-05-06T15:46:30.640Z,53.98
2023-05-06T15:49:20.974Z,53.45
2023-05-06T15:51:47.088Z,53.41
2023-05-06T15:54:18.365Z,54.01
2023-05-06T15:56:46.638Z,54.30
2023-05-06T15:59:14.892Z,54.79
2023-05-06T16:04:17.102Z,54.52
2023-05-06T16:06:45.225Z,53.33
2023-05-06T16:09:13.174Z,53.40
2023-05-06T16:11:43.868Z,52.81
2023-05-06T16:14:11.848Z,52.74
2023-05-06T16:16:40.966Z,53.02
2023-05-06T16:19:10.743Z,54.28
2023-05-06T16:21:38.773Z,54.24
2023-05-06T16:24:07.225Z,54.64
2023-05-06T16:26:35.607Z,55.19
2023-05-06T16:29:03.611Z,55.41
2023-05-06T16:31:32.015Z,55.68
2023-05-06T16:34:00.091Z,56.42
2023-05-06T16:36:29.697Z,56.93
2023-05-06T16:38:57.663Z,57.38
2023-05-06T16:41:25.721Z,57.57
2023-05-06T16:43:54.893Z,58.39
2023-05-06T16:46:24.394Z,58.81
2023-05-06T16:48:54.177Z,59.28
2023-05-06T16:51:22.097Z,59.95
2023-05-06T16:53:51.501Z,60.13
2023-05-06T16:56:19.491Z,60.63
2023-05-06T16:58:47.473Z,60.91
2023-05-06T17:01:15.550Z,61.71
2023-05-06T17:03:43.555Z,62.13
2023-05-06T17:06:11.589Z,62.94
2023-05-06T17:08:39.835Z,63.96
2023-05-06T17:11:09.157Z,64.44
2023-05-06T17:13:40.287Z,64.69
2023-05-06T17:16:10.272Z,65.56
2023-05-06T17:18:38.344Z,66.35
2023-05-06T17:21:11.556Z,66.95
2023-05-06T17:23:39.815Z,67.42
2023-05-06T17:26:10.534Z,67.65
2023-05-06T17:28:38.809Z,68.15
2023-05-06T17:31:06.950Z,68.24
2023-05-06T17:33:35.566Z,68.44
2023-05-06T17:36:03.501Z,68.98
2023-05-06T17:38:31.604Z,69.35
2023-05-06T17:41:00.006Z,70.16
2023-05-06T17:43:29.284Z,70.83
2023-05-06T17:45:57.304Z,71.95
2023-05-06T17:48:25.337Z,72.83
2023-05-06T17:50:53.291Z,73.97
2023-05-06T17:53:21.297Z,74.42
2023-05-06T17:55:49.314Z,75.49
2023-05-06T17:58:17.642Z,76.27
2023-05-06T18:00:47.008Z,77.26
2023-05-06T18:03:15.118Z,77.87
2023-05-06T18:05:43.169Z,78.32
2023-05-06T18:08:11.105Z,78.56
2023-05-06T18:10:40.602Z,79.14
2023-05-06T18:13:10.000Z,79.72
2023-05-06T18:15:37.994Z,79.57
2023-05-06T18:18:07.587Z,80.11
2023-05-06T18:20:35.674Z,80.45
2023-05-06T18:23:03.621Z,81.14
2023-05-06T18:25:31.627Z,81.31
2023-05-06T18:27:59.785Z,81.36
2023-05-06T18:30:27.734Z,81.19
2023-05-06T18:32:56.910Z,81.77
2023-05-06T18:35:26.478Z,81.34
2023-05-06T18:37:54.926Z,82.03
2023-05-06T18:40:23.355Z,83.16
2023-05-06T18:42:51.378Z,83.50
2023-05-06T18:45:19.480Z,85.37
2023-05-06T18:47:47.492Z,86.77
2023-05-06T18:50:16.097Z,88.28
2023-05-06T18:52:45.499Z,88.96
2023-05-06T18:55:13.853Z,90.47
2023-05-06T18:57:41.914Z,91.28
2023-05-06T19:00:11.038Z,92.45
2023-05-06T19:02:39.067Z,91.42
2023-05-06T19:05:08.392Z,91.24
2023-05-06T19:07:36.718Z,92.18
2023-05-06T19:10:07.456Z,92.23
2023-05-06T19:12:35.902Z,92.92
2023-05-06T19:15:03.938Z,93.81
2023-05-06T19:17:31.986Z,92.79
2023-05-06T19:20:00.011Z,91.07
2023-05-06T19:22:29.831Z,90.04
2023-05-06T19:24:59.027Z,88.62
2023-05-06T19:27:28.303Z,88.01
2023-05-06T19:29:56.675Z,88.34
2023-05-06T19:32:24.937Z,90.00
2023-05-06T19:34:52.899Z,90.76
2023-05-06T19:37:21.219Z,91.10
2023-05-06T19:39:50.047Z,91.34
2023-05-06T19:42:18.260Z,91.30
2023-05-06T19:44:49.802Z,91.10
2023-05-06T19:47:17.872Z,91.27
2023-05-06T19:49:46.204Z,92.23
2023-05-06T19:52:14.364Z,91.51
2023-05-06T19:54:42.516Z,91.97
2023-05-06T19:57:10.671Z,92.48
2023-05-06T19:59:38.682Z,93.04
2023-05-06T20:02:11.126Z,93.47
2023-05-06T20:04:39.194Z,93.54
2023-05-06T20:07:08.361Z,94.16
2023-05-06T20:09:38.986Z,94.60
2023-05-06T20:12:07.940Z,95.04
2023-05-06T20:14:35.955Z,94.87
2023-05-06T20:17:03.968Z,94.84
2023-05-06T20:19:33.543Z,94.49
2023-05-06T20:22:01.699Z,94.98
2023-05-06T20:24:32.681Z,95.65
2023-05-06T20:27:00.697Z,95.23
2023-05-06T20:29:28.735Z,95.26
2023-05-06T20:31:56.809Z,94.62
2023-05-06T20:34:25.588Z,94.51
2023-05-06T20:36:56.267Z,93.96
2023-05-06T20:39:24.639Z,92.91
2023-05-06T20:41:52.575Z,92.80
2023-05-06T20:44:20.535Z,92.64
2023-05-06T20:46:48.508Z,92.25
2023-05-06T20:49:16.559Z,91.80
2023-05-06T20:51:44.701Z,91.89
2023-05-06T20:54:13.952Z,91.58
2023-05-06T20:56:42.998Z,91.28
2023-05-06T20:59:10.942Z,90.82
2023-05-06T21:01:39.222Z,91.34
2023-05-06T21:04:07.422Z,91.38
2023-05-06T21:06:35.452Z,90.90
2023-05-06T21:09:03.401Z,90.66
2023-05-06T21:11:37.772Z,90.75
2023-05-06T21:14:05.896Z,90.68
2023-05-06T21:16:33.887Z,91.02
2023-05-06T21:19:01.954Z,91.53
2023-05-06T21:21:32.833Z,93.08
2023-05-06T21:24:01.206Z,92.89
2023-05-06T21:26:31.638Z,93.08
2023-05-06T21:29:01.719Z,93.18
2023-05-06T21:31:30.420Z,93.25
2023-05-06T21:34:00.154Z,92.84
2023-05-06T21:36:28.443Z,94.23
2023-05-06T21:39:02.261Z,94.00
2023-05-06T21:41:31.269Z,93.96
2023-05-06T21:44:00.777Z,94.08
2023-05-06T21:46:28.816Z,94.62
2023-05-06T21:48:57.058Z,94.62
2023-05-06T21:51:27.563Z,94.87
2023-05-06T21:53:55.625Z,95.80
2023-05-06T21:56:24.391Z,97.67
2023-05-06T21:58:56.067Z,98.54
2023-05-06T22:01:27.388Z,100.00
2023-05-06T22:03:55.701Z,100.00
2023-05-06T22:06:23.843Z,100.00
2023-05-06T22:08:52.150Z,100.00
2023-05-06T22:11:22.778Z,100.00
2023-05-06T22:13:50.974Z,100.00
2023-05-06T22:16:18.962Z,100.00
2023-05-06T22:18:48.378Z,100.00
2023-05-06T22:21:16.353Z,100.00
2023-05-06T22:23:44.927Z,100.00
2023-05-06T22:26:13.355Z,100.00
2023-05-06T22:28:41.278Z,100.00
2023-05-06T22:31:09.291Z,100.00
2023-05-06T22:33:37.446Z,100.00
2023-05-06T22:36:07.344Z,100.00
2023-05-06T22:38:35.372Z,100.00
2023-05-06T22:41:03.329Z,100.00
2023-05-06T22:43:31.263Z,100.00
2023-05-06T22:45:59.257Z,100.00
2023-05-06T22:48:27.996Z,100.00
2023-05-06T22:50:56.469Z,100.00
2023-05-06T22:53:26.014Z,100.00
2023-05-06T22:55:53.980Z,100.00
2023-05-06T22:58:22.148Z,100.00
2023-05-06T23:00:50.148Z,100.00
2023-05-06T23:03:19.652Z,100.00
2023-05-06T23:05:47.648Z,100.00
2023-05-06T23:08:16.335Z,100.00
2023-05-06T23:10:45.725Z,100.00
2023-05-06T23:13:13.731Z,100.00
2023-05-06T23:15:41.691Z,100.00
2023-05-06T23:18:09.645Z,100.00
2023-05-06T23:20:37.692Z,100.00
2023-05-06T23:23:05.696Z,100.00
2023-05-06T23:25:33.625Z,100.00
2023-05-06T23:28:02.938Z,100.00
2023-05-06T23:30:31.026Z,100.00
2023-05-06T23:32:59.193Z,100.00
2023-05-06T23:35:27.167Z,100.00
2023-05-06T23:37:55.152Z,100.00
2023-05-06T23:40:23.278Z,100.00
2023-05-06T23:42:51.228Z,100.00
2023-05-06T23:45:20.880Z,100.00
2023-05-06T23:47:48.861Z,100.00
2023-05-06T23:50:17.075Z,100.00
2023-05-06T23:52:45.046Z,100.00
2023-05-06T23:55:13.672Z,100.00
2023-05-06T23:57:41.781Z,100.00
